Time;durP1;ratioP1;P1;durP2;ratioP2;P2;SDS_P1;SDS_P2;PMS_P1;PMS_P2;Temp;Humidity;BMP_temperature;BMP_pressure;BME280_temperature;BME280_humidity;BME280_pressure;Samples;Min_cycle;Max_cycle;Signal;HPM_P1;HPM_P2
2022/06/19 00:00:32;;;;;;;3.63;0.30;;;;;;;13.60;77.61;101084.16;7389161;19;20034;-78
2022/06/19 00:03:01;;;;;;;4.25;0.35;;;;;;;13.64;76.85;101087.28;7391179;19;20030;-78
2022/06/19 00:05:29;;;;;;;5.97;0.40;;;;;;;13.59;75.68;101079.88;7387161;19;20010;-78
2022/06/19 00:07:56;;;;;;;2.30;0.35;;;;;;;13.57;75.69;101094.22;7386930;19;20018;-78
2022/06/19 00:10:24;;;;;;;4.50;0.20;;;;;;;13.52;75.76;101092.06;7386538;19;20018;-77
2022/06/19 00:12:51;;;;;;;2.58;0.30;;;;;;;13.56;75.21;101072.25;7385114;19;20015;-78
2022/06/19 00:15:19;;;;;;;2.95;0.10;;;;;;;13.54;73.81;101065.47;7390304;19;20014;-79
2022/06/19 00:17:46;;;;;;;4.28;0.20;;;;;;;13.49;73.47;101058.06;7387892;19;20043;-78
2022/06/19 00:20:14;;;;;;;4.00;0.25;;;;;;;13.45;74.20;101040.06;7386874;19;20014;-78
2022/06/19 00:22:43;;;;;;;1.13;0.20;;;;;;;13.42;74.43;101035.06;7386006;19;20256;-78
2022/06/19 00:25:10;;;;;;;3.85;0.50;;;;;;;13.38;75.01;101031.94;7387064;19;20452;-78
2022/06/19 00:27:40;;;;;;;2.58;0.20;;;;;;;13.38;75.48;101031.13;7388076;19;20013;-78
2022/06/19 00:30:11;;;;;;;2.35;0.20;;;;;;;13.37;76.00;101040.03;7388198;19;20398;-79
2022/06/19 00:32:39;;;;;;;6.20;0.85;;;;;;;13.36;76.25;101046.34;7385813;19;20014;-78
2022/06/19 00:35:08;;;;;;;1.83;0.20;;;;;;;13.43;76.43;101065.81;7385585;19;20027;-78
2022/06/19 00:37:37;;;;;;;6.07;0.32;;;;;;;13.46;76.70;101068.94;7385976;19;20027;-79
2022/06/19 00:40:10;;;;;;;2.85;0.20;;;;;;;13.51;76.58;101071.13;7387256;19;20325;-78
2022/06/19 00:42:39;;;;;;;1.65;0.20;;;;;;;13.45;76.93;101069.13;7387039;19;20040;-78
2022/06/19 00:45:07;;;;;;;2.30;0.30;;;;;;;13.45;76.98;101067.31;7387073;19;20321;-78
2022/06/19 00:47:38;;;;;;;1.63;0.20;;;;;;;13.50;77.56;101077.38;7386260;19;20366;-78
2022/06/19 00:50:22;;;;;;;5.07;0.60;;;;;;;13.37;77.66;101080.50;7387405;19;20310;-78
2022/06/19 00:52:50;;;;;;;1.70;0.28;;;;;;;13.33;78.34;101068.63;7385671;19;20014;-78
2022/06/19 00:55:23;;;;;;;4.65;0.32;;;;;;;13.31;79.04;101065.31;7387746;19;20107;-79
2022/06/19 00:58:00;;;;;;;4.65;0.30;;;;;;;13.30;78.72;101058.41;7385859;19;20014;-79
2022/06/19 01:00:29;;;;;;;3.35;0.30;;;;;;;13.28;79.21;101041.88;7386483;19;20101;-78
2022/06/19 01:03:01;;;;;;;4.43;0.40;;;;;;;13.21;79.39;101035.56;7386102;19;20330;-79
2022/06/19 01:05:30;;;;;;;3.17;0.30;;;;;;;13.20;79.55;101039.22;7386212;19;20011;-79
2022/06/19 01:08:00;;;;;;;2.10;0.20;;;;;;;13.16;79.60;101051.91;7386368;19;20014;-78
2022/06/19 01:10:30;;;;;;;5.20;0.40;;;;;;;13.11;80.28;101058.66;7386487;19;20014;-79
2022/06/19 01:12:58;;;;;;;4.13;0.30;;;;;;;13.02;80.42;101055.19;7387163;19;20365;-79
2022/06/19 01:15:26;;;;;;;5.18;0.47;;;;;;;12.99;80.97;101059.97;7386933;19;20010;-78
2022/06/19 01:18:00;;;;;;;4.78;0.82;;;;;;;13.03;81.57;101045.44;7385960;19;20471;-78
2022/06/19 01:20:28;;;;;;;4.97;0.70;;;;;;;13.08;81.38;101041.31;7385595;19;20052;-78
2022/06/19 01:23:01;;;;;;;1.95;0.30;;;;;;;13.15;80.30;101037.09;7384826;19;20017;-78
2022/06/19 01:25:32;;;;;;;2.85;0.40;;;;;;;13.23;79.19;101042.34;7385708;19;20016;-78
2022/06/19 01:30:37;;;;;;;6.68;0.50;;;;;;;13.31;78.23;101017.75;7386661;19;20028;-78
2022/06/19 01:33:09;;;;;;;6.28;0.40;;;;;;;13.35;77.80;101007.69;7385185;19;20010;-79
2022/06/19 01:35:38;;;;;;;3.83;0.38;;;;;;;13.40;76.51;100986.84;7384940;19;20011;-78
2022/06/19 01:38:10;;;;;;;3.80;0.30;;;;;;;13.37;76.67;100988.00;7383589;19;20014;-78
2022/06/19 01:40:41;;;;;;;5.53;0.30;;;;;;;13.37;76.75;100960.75;7386220;19;20074;-78
2022/06/19 01:43:09;;;;;;;5.32;0.20;;;;;;;13.40;77.07;100942.75;7384833;19;20050;-79
2022/06/19 01:45:41;;;;;;;3.08;0.60;;;;;;;13.47;76.74;100961.38;7385361;19;20010;-79
2022/06/19 01:48:08;;;;;;;4.15;0.55;;;;;;;13.55;76.73;100972.78;7384462;19;20006;-78
2022/06/19 01:50:36;;;;;;;5.40;0.50;;;;;;;13.63;75.68;100985.97;7383051;19;20025;-80
2022/06/19 01:53:09;;;;;;;1.90;0.40;;;;;;;13.71;75.03;100988.59;7384895;19;20006;-77
2022/06/19 01:55:38;;;;;;;6.20;0.40;;;;;;;13.75;74.97;101001.50;7385550;19;20458;-78
2022/06/19 01:58:07;;;;;;;2.33;0.28;;;;;;;13.71;74.85;101007.09;7385530;19;20041;-78
2022/06/19 02:00:39;;;;;;;4.10;0.40;;;;;;;13.64;75.58;101023.84;7386375;19;20314;-79
2022/06/19 02:03:15;;;;;;;4.03;0.40;;;;;;;13.63;76.09;101035.41;7384580;19;20007;-78
2022/06/19 02:05:43;;;;;;;6.10;0.35;;;;;;;13.63;76.26;101025.66;7383698;19;20069;-79
2022/06/19 02:08:12;;;;;;;3.75;0.40;;;;;;;13.66;76.21;101022.66;7381884;19;20092;-78
2022/06/19 02:10:41;;;;;;;5.47;0.30;;;;;;;13.76;75.57;101024.31;7382996;19;20507;-79
2022/06/19 02:13:10;;;;;;;3.80;0.40;;;;;;;13.70;75.81;101028.47;7383886;19;20043;-79
2022/06/19 02:15:39;;;;;;;4.97;0.40;;;;;;;13.66;76.09;101025.31;7381782;19;20561;-79
2022/06/19 02:18:16;;;;;;;5.35;0.40;;;;;;;13.58;76.00;101011.28;7383879;19;20149;-78
2022/06/19 02:20:43;;;;;;;2.70;0.30;;;;;;;13.59;75.66;101011.13;7383402;19;20127;-78
2022/06/19 02:23:11;;;;;;;4.18;0.57;;;;;;;13.56;76.11;101010.63;7386157;19;20014;-79
2022/06/19 02:25:40;;;;;;;5.30;0.30;;;;;;;13.58;75.92;101027.13;7390422;19;20087;-78
2022/06/19 02:28:09;;;;;;;4.60;0.45;;;;;;;13.59;75.29;101026.97;7391447;19;20017;-78
2022/06/19 02:30:36;;;;;;;35.42;13.82;;;;;;;13.62;76.05;101036.38;7392984;19;20467;-79
2022/06/19 02:33:06;;;;;;;39.10;13.15;;;;;;;13.67;75.95;101037.53;7391387;19;20469;-79
2022/06/19 02:35:33;;;;;;;8.75;2.75;;;;;;;13.71;75.68;101035.41;7389238;19;20015;-79
2022/06/19 02:38:07;;;;;;;7.95;0.70;;;;;;;13.76;75.52;101041.00;7389721;19;20021;-79
2022/06/19 02:40:40;;;;;;;4.25;0.30;;;;;;;13.82;75.74;101050.06;7390626;19;20115;-79
2022/06/19 02:43:13;;;;;;;8.00;0.43;;;;;;;13.83;75.37;101034.03;7391948;19;20048;-79
2022/06/19 02:45:40;;;;;;;4.50;0.60;;;;;;;13.87;75.19;101045.94;7391467;19;20006;-78
2022/06/19 02:48:17;;;;;;;6.40;0.50;;;;;;;13.94;75.36;101035.50;7389784;19;20034;-79
2022/06/19 02:50:44;;;;;;;4.80;0.60;;;;;;;13.97;75.46;101035.97;7387434;19;20016;-79
2022/06/19 02:53:12;;;;;;;7.90;0.30;;;;;;;13.98;75.45;101027.06;7388112;19;20479;-79
2022/06/19 02:55:40;;;;;;;6.72;0.50;;;;;;;14.04;75.18;101030.84;7388713;19;20010;-79
2022/06/19 02:58:08;;;;;;;3.60;0.40;;;;;;;14.03;74.98;101043.25;7390882;19;20007;-79
2022/06/19 03:00:36;;;;;;;6.10;0.43;;;;;;;14.04;75.09;101052.00;7390818;19;20014;-79
2022/06/19 03:03:11;;;;;;;3.92;0.40;;;;;;;13.97;75.66;101056.31;7388872;19;20455;-78
2022/06/19 03:05:38;;;;;;;5.50;0.38;;;;;;;13.92;75.96;101051.53;7389523;19;20011;-78
2022/06/19 03:08:09;;;;;;;5.32;0.50;;;;;;;13.88;76.12;101059.97;7391164;19;20029;-79
2022/06/19 03:10:36;;;;;;;5.22;0.40;;;;;;;13.84;76.81;101059.50;7389294;19;20130;-77
2022/06/19 03:13:03;;;;;;;6.97;0.40;;;;;;;13.86;76.70;101067.28;7391056;19;20006;-77
2022/06/19 03:15:31;;;;;;;4.97;0.38;;;;;;;13.89;76.68;101059.81;7392792;19;20007;-78
2022/06/19 03:17:59;;;;;;;6.90;0.40;;;;;;;13.90;76.85;101052.72;7387967;19;20010;-78
2022/06/19 03:20:27;;;;;;;8.07;1.02;;;;;;;13.85;77.15;101032.06;7390575;19;20374;-78
2022/06/19 03:22:54;;;;;;;6.43;0.50;;;;;;;13.71;77.77;101041.50;7388279;19;20011;-79
2022/06/19 03:25:22;;;;;;;3.92;0.40;;;;;;;13.66;78.03;101048.31;7385739;19;20354;-79
2022/06/19 03:27:49;;;;;;;5.88;0.32;;;;;;;13.64;78.35;101044.97;7391656;19;20007;-79
2022/06/19 03:30:20;;;;;;;4.80;0.50;;;;;;;13.57;78.75;101039.53;7391415;19;20455;-77
2022/06/19 03:32:47;;;;;;;6.75;0.60;;;;;;;13.59;79.30;101028.78;7387714;19;20011;-78
2022/06/19 03:35:16;;;;;;;9.30;0.50;;;;;;;13.58;79.02;101027.97;7386194;19;20029;-77
2022/06/19 03:37:44;;;;;;;5.78;0.52;;;;;;;13.61;79.40;101040.84;7388561;19;20448;-78
2022/06/19 03:40:11;;;;;;;3.60;0.38;;;;;;;13.67;78.90;101055.22;7388486;19;20010;-78
2022/06/19 03:42:39;;;;;;;7.93;1.05;;;;;;;13.71;78.53;101048.63;7388145;19;20006;-77
2022/06/19 03:45:07;;;;;;;9.10;0.68;;;;;;;13.63;78.45;101045.97;7391307;19;20480;-78
2022/06/19 03:47:34;;;;;;;3.50;0.50;;;;;;;13.60;78.99;101049.78;7386309;19;20703;-78
2022/06/19 03:50:03;;;;;;;7.57;0.70;;;;;;;13.63;79.52;101046.81;7386213;19;20110;-79
2022/06/19 03:52:30;;;;;;;6.82;0.40;;;;;;;13.74;78.86;101050.91;7386446;19;20011;-77
2022/06/19 03:54:58;;;;;;;6.25;0.90;;;;;;;13.81;77.82;101064.31;7384416;19;20030;-78
2022/06/19 03:57:25;;;;;;;11.57;0.50;;;;;;;13.78;78.00;101078.69;7387039;19;20019;-79
2022/06/19 03:59:53;;;;;;;9.20;0.63;;;;;;;13.80;77.95;101089.09;7387307;19;20011;-79
2022/06/19 04:02:20;;;;;;;4.82;0.40;;;;;;;13.82;77.84;101101.16;7387540;19;20017;-79
2022/06/19 04:04:47;;;;;;;5.35;0.70;;;;;;;13.86;77.53;101091.91;7386171;19;20019;-78
2022/06/19 04:07:16;;;;;;;6.35;0.30;;;;;;;13.86;77.75;101083.16;7386644;19;20385;-77
2022/06/19 04:09:44;;;;;;;9.90;0.50;;;;;;;13.89;77.97;101088.09;7387670;19;20014;-78
2022/06/19 04:12:12;;;;;;;7.75;0.50;;;;;;;13.91;77.43;101089.59;7387806;19;20010;-79
2022/06/19 04:14:40;;;;;;;4.90;0.40;;;;;;;13.90;77.31;101087.94;7384030;19;20043;-78
2022/06/19 04:17:08;;;;;;;9.00;0.50;;;;;;;13.89;77.33;101080.97;7388246;19;20134;-78
2022/06/19 04:19:35;;;;;;;11.50;0.60;;;;;;;13.94;76.77;101080.47;7384866;19;20263;-78
2022/06/19 04:22:03;;;;;;;8.43;0.55;;;;;;;13.94;76.52;101097.19;7385188;19;20002;-77
2022/06/19 04:24:30;;;;;;;6.80;0.60;;;;;;;13.93;76.10;101126.44;7387221;19;20029;-79
2022/06/19 04:26:58;;;;;;;7.00;0.68;;;;;;;13.94;76.12;101139.50;7385475;19;20483;-78
2022/06/19 04:29:25;;;;;;;7.47;0.40;;;;;;;13.97;76.69;101138.34;7386489;19;20010;-79
2022/06/19 04:31:55;;;;;;;7.40;0.50;;;;;;;13.98;76.44;101124.13;7390707;19;20019;-78
2022/06/19 04:34:23;;;;;;;6.95;0.57;;;;;;;14.01;76.25;101132.56;7384928;19;20016;-79
2022/06/19 04:36:51;;;;;;;7.00;0.50;;;;;;;14.07;76.02;101131.03;7386992;19;20010;-78
2022/06/19 04:39:18;;;;;;;5.57;0.60;;;;;;;14.07;76.42;101142.47;7384903;19;20039;-79
2022/06/19 04:41:46;;;;;;;6.00;0.60;;;;;;;14.06;76.20;101142.66;7385476;19;20018;-77
2022/06/19 04:44:16;;;;;;;8.15;0.65;;;;;;;14.06;76.13;101140.81;7386973;19;20010;-79
2022/06/19 04:46:45;;;;;;;10.18;0.77;;;;;;;14.04;76.51;101134.03;7385827;19;20014;-78
2022/06/19 04:49:14;;;;;;;2.15;0.30;;;;;;;14.07;76.39;101125.75;7386146;19;20493;-78
2022/06/19 04:51:43;;;;;;;5.03;0.75;;;;;;;14.06;76.42;101122.31;7384105;19;20033;-78
2022/06/19 04:54:11;;;;;;;5.32;0.47;;;;;;;14.08;76.79;101112.34;7382821;19;20010;-78
2022/06/19 04:56:40;;;;;;;7.45;1.08;;;;;;;14.13;76.27;101115.31;7386888;19;20014;-78
2022/06/19 04:59:08;;;;;;;6.90;0.40;;;;;;;14.10;76.67;101110.38;7386697;19;20018;-78
2022/06/19 05:01:37;;;;;;;8.93;0.75;;;;;;;14.16;76.31;101105.41;7388718;19;20006;-78
2022/06/19 05:04:09;;;;;;;12.27;0.93;;;;;;;14.14;75.63;101111.69;7385280;19;20030;-78
2022/06/19 05:06:36;;;;;;;5.90;0.50;;;;;;;14.12;76.37;101112.84;7386675;19;20567;-78
2022/06/19 05:09:04;;;;;;;8.43;0.50;;;;;;;14.06;75.51;101103.78;7384889;19;20007;-78
2022/06/19 05:11:32;;;;;;;7.60;0.60;;;;;;;14.02;75.77;101096.31;7385899;19;20027;-78
2022/06/19 05:14:00;;;;;;;9.13;0.35;;;;;;;14.00;76.07;101104.44;7384646;19;20044;-78
2022/06/19 05:16:27;;;;;;;7.90;0.40;;;;;;;13.99;76.16;101107.25;7388378;19;20379;-78
2022/06/19 05:18:56;;;;;;;5.28;0.40;;;;;;;13.96;76.50;101110.25;7384372;19;20011;-78
2022/06/19 05:21:25;;;;;;;5.63;0.50;;;;;;;13.95;76.65;101101.47;7385756;19;20077;-78
2022/06/19 05:23:54;;;;;;;5.82;0.50;;;;;;;13.91;76.57;101102.00;7384790;19;20006;-78
2022/06/19 05:26:26;;;;;;;8.18;0.80;;;;;;;13.87;76.86;101092.72;7387323;19;20037;-78
2022/06/19 05:28:55;;;;;;;8.88;0.63;;;;;;;13.88;76.67;101089.91;7385113;19;20015;-78
2022/06/19 05:31:24;;;;;;;11.30;0.60;;;;;;;13.86;77.08;101093.72;7385897;19;20039;-78
2022/06/19 05:33:52;;;;;;;8.38;0.65;;;;;;;13.90;77.28;101101.16;7381983;19;20123;-78
2022/06/19 05:36:21;;;;;;;4.40;0.40;;;;;;;13.96;77.12;101095.19;7388421;19;20133;-77
2022/06/19 05:38:50;;;;;;;9.05;0.50;;;;;;;14.04;76.45;101103.13;7384002;19;20010;-80
2022/06/19 05:41:18;;;;;;;6.75;0.60;;;;;;;14.04;75.88;101108.41;7385120;19;20328;-79
2022/06/19 05:43:49;;;;;;;7.97;0.55;;;;;;;14.07;76.17;101100.13;7385075;19;20006;-77
2022/06/19 05:46:18;;;;;;;3.25;0.40;;;;;;;14.13;75.48;101110.03;7385107;19;20014;-78
2022/06/19 05:48:46;;;;;;;5.68;0.77;;;;;;;14.12;75.74;101113.66;7386463;19;20360;-79
2022/06/19 05:51:17;;;;;;;10.15;0.73;;;;;;;14.12;75.08;101110.19;7384354;19;20010;-78
2022/06/19 05:53:47;;;;;;;5.90;0.63;;;;;;;14.10;75.15;101107.75;7383404;19;20041;-78
2022/06/19 05:56:15;;;;;;;7.15;1.40;;;;;;;14.09;75.00;101090.19;7384395;19;20386;-78
2022/06/19 05:58:43;;;;;;;5.22;0.40;;;;;;;14.08;75.11;101088.53;7389332;19;20029;-78
2022/06/19 06:01:11;;;;;;;6.35;0.47;;;;;;;14.11;75.29;101080.28;7393378;19;20011;-78
2022/06/19 06:03:41;;;;;;;6.60;0.50;;;;;;;14.16;75.37;101066.53;7391096;19;20574;-79
2022/06/19 06:06:14;;;;;;;8.25;0.63;;;;;;;14.20;75.40;101051.97;7388951;19;20011;-78
2022/06/19 06:08:42;;;;;;;9.48;0.70;;;;;;;14.28;75.07;101043.16;7390904;19;20015;-78
2022/06/19 06:11:09;;;;;;;8.68;0.40;;;;;;;14.30;74.83;101036.72;7392336;19;20357;-78
2022/06/19 06:13:37;;;;;;;9.18;0.40;;;;;;;14.37;74.50;101036.88;7390419;19;20475;-79
2022/06/19 06:16:05;;;;;;;5.25;0.30;;;;;;;14.40;74.81;101052.41;7391731;19;20003;-78
2022/06/19 06:18:33;;;;;;;4.72;0.40;;;;;;;14.45;74.97;101042.97;7390888;19;20015;-79
2022/06/19 06:21:05;;;;;;;8.43;0.50;;;;;;;14.54;74.45;101043.72;7390796;19;20160;-79
2022/06/19 06:23:33;;;;;;;9.32;0.60;;;;;;;14.61;74.01;101047.34;7394129;19;20663;-78
2022/06/19 06:26:02;;;;;;;5.88;0.40;;;;;;;14.74;73.21;101039.66;7390022;19;20443;-78
2022/06/19 06:28:31;;;;;;;8.18;0.50;;;;;;;14.67;72.68;101009.59;7391815;19;20010;-78
2022/06/19 06:30:59;;;;;;;6.10;0.30;;;;;;;14.65;72.83;101016.88;7394622;19;20033;-78
2022/06/19 06:33:26;;;;;;;6.63;0.60;;;;;;;14.68;73.53;101048.28;7390709;19;20014;-79
2022/06/19 06:35:54;;;;;;;4.45;0.40;;;;;;;14.69;72.83;101057.06;7391379;19;20010;-79
2022/06/19 06:38:23;;;;;;;5.18;0.50;;;;;;;14.72;73.01;101083.22;7389815;19;20037;-78
2022/06/19 06:40:51;;;;;;;7.63;0.50;;;;;;;14.79;72.48;101063.78;7391030;19;20300;-79
2022/06/19 06:43:21;;;;;;;6.47;0.50;;;;;;;14.80;72.57;101046.09;7392027;19;20028;-78
2022/06/19 06:45:49;;;;;;;7.80;0.60;;;;;;;14.83;71.81;101037.81;7391084;19;20010;-78
2022/06/19 06:48:17;;;;;;;5.38;0.70;;;;;;;14.82;71.25;101012.31;7390235;19;20378;-78
2022/06/19 06:50:45;;;;;;;4.38;0.30;;;;;;;14.85;71.38;101028.66;7389194;19;20038;-77
2022/06/19 06:53:13;;;;;;;10.02;0.60;;;;;;;14.89;71.25;101022.00;7387558;19;20017;-77
2022/06/19 06:55:42;;;;;;;5.68;0.50;;;;;;;14.97;70.97;101023.78;7389041;19;20010;-77
2022/06/19 06:58:11;;;;;;;6.10;0.50;;;;;;;15.02;70.39;101005.53;7387890;19;20010;-79
2022/06/19 07:00:38;;;;;;;4.35;0.40;;;;;;;14.98;69.68;100997.09;7390023;19;20006;-79
2022/06/19 07:03:06;;;;;;;5.13;0.40;;;;;;;14.95;70.16;101005.41;7387974;19;20795;-79
2022/06/19 07:05:34;;;;;;;5.82;0.63;;;;;;;14.94;70.47;101002.94;7388050;19;20017;-78
2022/06/19 07:08:01;;;;;;;4.55;0.40;;;;;;;14.99;69.96;101009.34;7388597;19;20037;-78
2022/06/19 07:10:29;;;;;;;5.53;0.40;;;;;;;14.93;69.92;101007.41;7389418;19;20033;-79
2022/06/19 07:12:56;;;;;;;6.28;0.93;;;;;;;14.92;69.82;100997.81;7388936;19;20014;-78
2022/06/19 07:15:24;;;;;;;7.22;0.50;;;;;;;14.74;70.13;101010.50;7390303;19;20024;-78
2022/06/19 07:17:52;;;;;;;7.35;0.80;;;;;;;14.79;70.42;101008.16;7388899;19;20431;-79
2022/06/19 07:20:19;;;;;;;6.30;0.47;;;;;;;14.81;70.69;101006.19;7388529;19;20033;-79
2022/06/19 07:22:46;;;;;;;8.40;0.40;;;;;;;14.84;70.56;101011.13;7389248;19;20018;-78
2022/06/19 07:25:17;;;;;;;7.95;0.47;;;;;;;14.92;70.27;101003.13;7388598;19;20353;-78
2022/06/19 07:27:45;;;;;;;7.15;0.80;;;;;;;15.08;69.99;101012.78;7391700;19;20260;-78
2022/06/19 07:30:17;;;;;;;5.22;0.30;;;;;;;15.19;68.34;101014.16;7386773;19;20010;-77
2022/06/19 07:32:44;;;;;;;12.25;0.80;;;;;;;15.19;68.62;101022.13;7384845;19;20017;-77
2022/06/19 07:35:12;;;;;;;6.22;0.40;;;;;;;15.20;68.39;101024.59;7384267;19;20039;-77
2022/06/19 07:37:39;;;;;;;6.45;0.38;;;;;;;15.22;68.56;101013.81;7388387;19;20030;-78
2022/06/19 07:40:07;;;;;;;7.70;0.50;;;;;;;15.27;68.68;101016.75;7384967;19;20019;-78
2022/06/19 07:42:34;;;;;;;5.80;0.30;;;;;;;15.41;68.31;101002.72;7387569;19;20006;-78
2022/06/19 07:45:03;;;;;;;9.20;0.82;;;;;;;15.77;65.64;100993.09;7387853;19;20392;-78
2022/06/19 07:52:31;;;;;;;4.55;0.40;;;;;;;15.85;63.93;100976.25;7386473;19;20049;-76
2022/06/19 07:54:58;;;;;;;5.85;0.20;;;;;;;15.72;63.92;100962.81;7378691;19;20037;-77
2022/06/19 07:57:27;;;;;;;5.13;0.30;;;;;;;15.75;64.72;100943.84;7383698;19;20256;-77
2022/06/19 07:59:54;;;;;;;6.30;0.40;;;;;;;15.77;63.48;100929.41;7383659;19;20026;-78
2022/06/19 08:02:21;;;;;;;5.80;0.30;;;;;;;15.80;64.16;100917.59;7385028;19;20003;-79
2022/06/19 08:04:48;;;;;;;6.95;0.35;;;;;;;15.86;63.61;100897.47;7385681;19;20014;-78
2022/06/19 08:07:17;;;;;;;3.35;0.40;;;;;;;15.81;63.77;100893.53;7383564;19;20027;-78
2022/06/19 08:09:46;;;;;;;8.07;0.22;;;;;;;15.89;63.37;100889.16;7380991;19;20483;-78
2022/06/19 08:12:14;;;;;;;5.25;0.60;;;;;;;15.93;64.26;100893.06;7382668;19;20007;-78
2022/06/19 08:14:41;;;;;;;5.25;0.40;;;;;;;15.95;64.69;100881.25;7384018;19;20029;-76
2022/06/19 08:17:09;;;;;;;8.13;0.45;;;;;;;16.04;64.57;100874.84;7382433;19;20393;-77
2022/06/19 08:19:36;;;;;;;4.18;0.35;;;;;;;16.10;63.69;100890.00;7383135;19;20034;-78
2022/06/19 08:22:04;;;;;;;6.40;0.55;;;;;;;16.12;63.07;100887.16;7382320;19;20484;-78
2022/06/19 08:24:31;;;;;;;3.88;0.60;;;;;;;16.16;63.03;100901.69;7382941;19;20014;-78
2022/06/19 08:29:29;;;;;;;3.80;0.40;;;;;;;16.07;64.08;100894.88;7383416;19;20038;-78
2022/06/19 08:31:56;;;;;;;5.75;0.40;;;;;;;16.04;62.69;100905.88;7381511;19;20021;-78
2022/06/19 08:34:23;;;;;;;4.57;0.32;;;;;;;16.12;63.17;100903.91;7381016;19;20021;-77
2022/06/19 08:36:50;;;;;;;3.20;0.30;;;;;;;16.23;63.09;100906.09;7380475;19;20015;-78
2022/06/19 08:39:19;;;;;;;5.25;0.40;;;;;;;16.31;61.15;100889.19;7380688;19;20078;-78
2022/06/19 08:42:13;;;;;;;2.72;0.20;;;;;;;16.34;61.04;100877.41;7381332;19;20025;-79
2022/06/19 08:44:52;;;;;;;7.50;0.60;;;;;;;16.41;60.48;100881.75;7380437;19;20449;-78
2022/06/19 08:47:38;;;;;;;5.65;0.40;;;;;;;16.47;60.49;100874.84;7386110;19;20011;-78
2022/06/19 08:50:11;;;;;;;5.32;0.30;;;;;;;16.55;60.31;100886.19;7392319;19;20097;-80
2022/06/19 08:52:49;;;;;;;4.28;0.50;;;;;;;16.64;60.19;100890.41;7385093;19;20027;-79
2022/06/19 08:55:26;;;;;;;6.97;0.30;;;;;;;16.71;58.95;100892.28;7381013;19;20051;-78
2022/06/19 08:57:59;;;;;;;7.45;0.43;;;;;;;16.75;59.29;100896.22;7383008;19;20028;-78
2022/06/19 09:00:26;;;;;;;;;;;;;;;16.76;59.09;100881.91;7384882;19;20127;-78
2022/06/19 09:03:02;;;;;;;6.80;0.30;;;;;;;16.78;57.57;100888.66;7382502;19;19911;-79
2022/06/19 09:05:46;;;;;;;9.32;0.30;;;;;;;16.79;57.28;100908.91;7381328;19;20078;-79
2022/06/19 09:08:32;;;;;;;6.05;0.30;;;;;;;16.79;57.07;100926.69;7379958;19;20372;-80
2022/06/19 09:11:16;;;;;;;4.53;0.52;;;;;;;16.76;55.69;100930.53;7380477;19;20025;-80
2022/06/19 09:13:53;;;;;;;3.83;0.30;;;;;;;16.76;55.36;100943.84;7382192;19;20093;-80
2022/06/19 09:16:31;;;;;;;5.70;0.30;;;;;;;16.83;53.87;100935.94;7380965;19;20082;-80
2022/06/19 09:19:10;;;;;;;2.00;0.20;;;;;;;16.85;53.18;100937.41;7380423;19;20015;-78
2022/06/19 09:21:39;;;;;;;1.83;0.20;;;;;;;16.76;53.74;100949.16;7379167;19;20026;-80
2022/06/19 09:24:20;;;;;;;9.73;0.40;;;;;;;16.75;54.57;100955.50;7376821;19;20074;-77
2022/06/19 09:26:56;;;;;;;2.57;0.20;;;;;;;16.82;54.72;100977.63;7376209;19;20011;-80
2022/06/19 09:29:33;;;;;;;5.43;0.30;;;;;;;16.87;55.10;101001.81;7375127;19;20096;-77
2022/06/19 09:32:12;;;;;;;4.05;0.22;;;;;;;16.90;55.35;101028.03;7376869;19;20011;-78
2022/06/19 09:34:59;;;;;;;3.17;0.77;;;;;;;16.94;56.13;101057.72;7378591;19;19999;-76
2022/06/19 09:37:36;;;;;;;4.38;0.50;;;;;;;16.97;56.22;101076.75;7380374;19;20388;-77
2022/06/19 09:40:09;;;;;;;3.15;0.30;;;;;;;17.06;55.31;101088.94;7379671;19;20014;-78
2022/06/19 09:42:46;;;;;;;3.78;0.20;;;;;;;17.22;54.57;101095.03;7378289;19;20018;-79
2022/06/19 09:45:22;;;;;;;4.82;0.13;;;;;;;17.38;54.11;101118.69;7378896;19;20018;-78
2022/06/19 09:48:06;;;;;;;2.88;0.15;;;;;;;17.51;54.66;101127.66;7379617;19;20418;-79
2022/06/19 09:50:46;;;;;;;2.15;0.20;;;;;;;17.74;52.91;101138.09;7378117;19;20015;-78
2022/06/19 09:53:22;;;;;;;3.92;0.30;;;;;;;17.81;52.51;101123.03;7373381;19;20039;-78
2022/06/19 09:56:18;;;;;;;1.70;0.22;;;;;;;17.83;52.23;101130.78;7377034;19;20348;-78
2022/06/19 09:59:01;;;;;;;2.50;0.65;;;;;;;17.86;52.11;101139.25;7341127;19;20026;-76
2022/06/19 10:01:29;;;;;;;;;;;;;;;17.86;51.69;101144.56;7378888;19;20038;-78
2022/06/19 10:04:33;;;;;;;3.50;0.40;;;;;;;17.85;52.84;101153.56;7368200;19;20332;-79
2022/06/19 10:07:25;;;;;;;2.67;0.30;;;;;;;17.84;52.59;101151.91;7376196;19;20051;-78
2022/06/19 10:10:21;;;;;;;4.05;0.20;;;;;;;17.86;52.89;101165.03;7378028;19;20028;-79
2022/06/19 10:13:20;;;;;;;3.42;0.30;;;;;;;17.78;53.37;101162.50;7373022;19;20021;-80
2022/06/19 10:15:49;;;;;;;5.82;0.20;;;;;;;17.72;53.64;101158.78;7373695;19;20010;-79
2022/06/19 10:18:46;;;;;;;3.13;0.25;;;;;;;17.71;54.66;101156.31;7376828;19;20472;-78
2022/06/19 10:24:57;;;;;;;1.95;0.20;;;;;;;17.70;54.07;101149.34;7377484;19;20352;-77
2022/06/19 10:27:45;;;;;;;1.98;0.20;;;;;;;17.73;52.75;101136.44;7373015;19;20620;-78
2022/06/19 10:30:24;;;;;;;3.25;0.30;;;;;;;17.77;52.49;101139.56;7378862;19;20010;-79
2022/06/19 10:33:19;;;;;;;4.15;0.40;;;;;;;17.71;52.24;101135.84;7377698;19;20435;-80
2022/06/19 10:36:48;;;;;;;3.10;0.88;;;;;;;17.76;51.69;101128.09;7377948;19;20017;-79
2022/06/19 10:39:25;;;;;;;3.22;0.20;;;;;;;17.69;51.46;101123.72;7376541;19;20452;-78
2022/06/19 10:42:31;;;;;;;2.53;0.25;;;;;;;17.65;52.10;101114.47;7382643;19;20602;-79
2022/06/19 10:45:05;;;;;;;2.50;0.22;;;;;;;17.60;52.29;101103.59;7386953;19;20391;-80
2022/06/19 10:48:10;;;;;;;2.95;0.30;;;;;;;17.64;51.79;101103.00;7385889;19;20354;-78
2022/06/19 10:50:59;;;;;;;3.92;0.20;;;;;;;17.62;53.05;101115.69;7385263;19;20082;-79
2022/06/19 10:53:56;;;;;;;1.75;0.22;;;;;;;17.66;52.02;101116.97;7385663;19;20532;-79
2022/06/19 10:56:39;;;;;;;3.33;0.20;;;;;;;17.71;52.38;101106.56;7382641;19;20805;-78
2022/06/19 10:59:06;;;;;;;2.00;0.30;;;;;;;17.70;51.88;101104.09;7385952;19;20017;-80
2022/06/19 11:04:29;;;;;;;2.20;0.20;;;;;;;17.79;52.21;101073.63;7384026;19;20031;-79
2022/06/19 11:07:17;;;;;;;2.85;0.22;;;;;;;17.86;52.84;101070.03;7384887;19;20526;-79
2022/06/19 11:09:53;;;;;;;3.67;0.30;;;;;;;17.98;52.24;101062.28;7385798;19;20420;-80
2022/06/19 11:12:41;;;;;;;2.42;0.30;;;;;;;18.03;52.01;101059.06;7387221;19;20018;-79
2022/06/19 11:15:25;;;;;;;4.78;0.40;;;;;;;18.09;52.24;101044.94;7384378;19;20010;-82
2022/06/19 11:18:13;;;;;;;2.85;0.30;;;;;;;18.13;51.47;101043.56;7389073;19;20086;-81
2022/06/19 11:20:55;;;;;;;4.90;0.25;;;;;;;18.16;50.72;101048.47;7389421;19;20021;-82
2022/06/19 11:23:35;;;;;;;2.75;0.20;;;;;;;18.13;50.22;101064.88;7387288;19;20051;-79
2022/06/19 11:26:09;;;;;;;2.58;0.47;;;;;;;18.19;50.74;101083.53;7391673;19;20014;-81
2022/06/19 11:28:56;;;;;;;4.95;0.32;;;;;;;18.27;50.81;101083.38;7386249;19;20014;-80
2022/06/19 11:31:30;;;;;;;3.35;0.30;;;;;;;18.27;51.58;101083.38;7389224;19;20417;-80
2022/06/19 11:37:09;;;;;;;3.33;0.20;;;;;;;18.39;50.64;101083.63;7388180;19;20015;-80
2022/06/19 11:39:44;;;;;;;3.13;0.85;;;;;;;18.48;50.63;101090.47;7386891;19;20003;-80
2022/06/19 11:42:30;;;;;;;2.20;0.22;;;;;;;18.57;49.92;101081.31;7390476;19;20014;-80
2022/06/19 11:45:19;;;;;;;1.10;0.20;;;;;;;18.57;50.26;101064.50;7391994;19;20009;-81
2022/06/19 11:47:58;;;;;;;2.83;0.55;;;;;;;18.60;50.64;101053.41;7385140;19;20014;-79
2022/06/19 11:50:37;;;;;;;0.90;0.10;;;;;;;18.67;49.01;101020.44;7390856;19;20011;-80
2022/06/19 11:53:06;;;;;;;2.30;0.30;;;;;;;18.61;49.15;101007.91;7386211;19;20011;-81
2022/06/19 11:55:36;;;;;;;3.20;0.30;;;;;;;18.59;49.95;100998.47;7388131;19;20041;-79
2022/06/19 11:58:16;;;;;;;3.63;0.10;;;;;;;18.58;48.38;101002.16;7387343;19;20117;-80
2022/06/19 12:00:52;;;;;;;2.78;0.25;;;;;;;18.57;49.42;100992.53;7389034;19;20032;-80
2022/06/19 12:03:29;;;;;;;2.70;0.30;;;;;;;18.47;49.31;100984.88;7387896;19;20014;-81
2022/06/19 12:06:05;;;;;;;2.13;0.30;;;;;;;18.47;49.56;100986.72;7386733;19;20137;-80